Sherwood Forest, Maryland
Current Conditions -  °F | °C
As of 3:54 PM on Friday 24 Oct 2014 (Local Time) from KNAK Reporting Station
Clear Clear  
Wind Chill: 67°   Ceiling: Unl
Heat Index: 67°   Visibility: 10mi
Dew Point: 40°   Wind: 10mph
Humidity: 37%   Direction: 290°WNW
Pressure: 29.87"   Gusts: NA
Location:  39.0256°N, 76.5415°W
Report Text: KNAK 241954Z AUTO 29009KT 10SM CLR 19/04 A2987 RMK AO2 SLP115 T01940044
Loading
Personal Weather Stations






























Interactive Weather Map
Tropical Storm Tracking
New forecast layout! Learn more

10-Day Weather Forecast

Advertisements
Track Severe Weather on mobile